Time;durP1;ratioP1;P1;durP2;ratioP2;P2;SDS_P1;SDS_P2;PMS_P1;PMS_P2;Temp;Humidity;BMP_temperature;BMP_pressure;BME280_temperature;BME280_humidity;BME280_pressure;Samples;Min_cycle;Max_cycle;Signal;HPM_P1;HPM_P2
2023/10/28 00:01:14;;;;;;;19.27;7.27;;;;;;;9.34;100.00;99070.50;6125471;28;20032;-72
2023/10/28 00:04:09;;;;;;;15.73;5.50;;;;;;;9.29;100.00;99060.44;6121596;28;20036;-72
2023/10/28 00:07:05;;;;;;;19.17;7.43;;;;;;;9.30;100.00;99083.25;6125608;28;20085;-72
2023/10/28 00:10:00;;;;;;;17.92;6.07;;;;;;;9.31;100.00;99071.66;6130513;28;20028;-72
2023/10/28 00:12:56;;;;;;;16.30;5.50;;;;;;;9.30;100.00;99070.00;6126355;28;20081;-73
2023/10/28 00:15:51;;;;;;;15.93;5.78;;;;;;;9.24;100.00;99070.72;6134690;28;20423;-73
2023/10/28 00:18:46;;;;;;;15.17;6.63;;;;;;;9.24;100.00;99076.00;6128799;28;20080;-73
2023/10/28 00:21:42;;;;;;;15.50;5.50;;;;;;;9.30;100.00;99067.38;6123012;28;20151;-72
2023/10/28 00:24:37;;;;;;;17.85;6.55;;;;;;;9.31;100.00;99081.41;6123989;28;20033;-72
2023/10/28 00:27:33;;;;;;;13.73;5.80;;;;;;;9.36;100.00;99095.75;6128149;28;20040;-73
2023/10/28 00:30:28;;;;;;;13.07;5.32;;;;;;;9.34;100.00;99091.66;6124102;28;20352;-72
2023/10/28 00:33:24;;;;;;;15.03;5.70;;;;;;;9.40;100.00;99083.00;6122480;28;20043;-73
2023/10/28 00:36:19;;;;;;;13.60;6.00;;;;;;;9.34;100.00;99071.31;6124256;28;20350;-73
2023/10/28 00:39:14;;;;;;;14.70;5.68;;;;;;;9.37;100.00;99081.53;6122835;28;20020;-73
2023/10/28 00:42:17;;;;;;;20.73;6.20;;;;;;;9.44;100.00;99087.75;6129373;28;20032;-72
2023/10/28 00:45:16;;;;;;;13.48;5.28;;;;;;;9.40;100.00;99091.75;6134601;28;20476;-72
2023/10/28 00:48:11;;;;;;;17.00;6.25;;;;;;;9.28;100.00;99082.59;6105089;28;20028;-72
2023/10/28 00:51:06;;;;;;;14.57;5.10;;;;;;;9.32;100.00;99080.44;6133382;28;20032;-72
2023/10/28 00:54:02;;;;;;;14.95;5.43;;;;;;;9.33;100.00;99074.94;6136338;28;20035;-72
2023/10/28 00:56:58;;;;;;;15.45;6.53;;;;;;;9.29;100.00;99078.97;6123536;28;20054;-72
2023/10/28 00:59:54;;;;;;;13.95;5.82;;;;;;;9.44;100.00;99087.75;6127801;28;20621;-72
2023/10/28 01:02:49;;;;;;;13.00;5.33;;;;;;;9.43;100.00;99096.69;6121925;28;20042;-72
2023/10/28 01:05:48;;;;;;;16.17;6.38;;;;;;;9.43;100.00;99101.97;6128598;28;20030;-72
2023/10/28 01:08:43;;;;;;;14.32;5.82;;;;;;;9.31;100.00;99092.84;6126225;28;20032;-73
2023/10/28 01:11:39;;;;;;;15.97;6.27;;;;;;;9.32;100.00;99104.25;6121628;28;20028;-72
2023/10/28 01:14:34;;;;;;;19.13;6.22;;;;;;;9.27;100.00;99102.09;6129559;28;20820;-73
2023/10/28 01:17:31;;;;;;;15.70;5.93;;;;;;;9.23;100.00;99100.84;6121984;28;20060;-72
2023/10/28 01:20:26;;;;;;;18.38;6.07;;;;;;;9.32;100.00;99098.94;6121361;28;20052;-72
2023/10/28 01:23:22;;;;;;;19.17;7.78;;;;;;;9.33;100.00;99111.16;6122368;28;20043;-73
2023/10/28 01:26:17;;;;;;;18.27;6.63;;;;;;;9.31;100.00;99103.41;6127886;28;20040;-73
2023/10/28 01:29:12;;;;;;;19.63;6.73;;;;;;;9.36;100.00;99093.13;6127771;28;20383;-72
2023/10/28 01:32:08;;;;;;;12.87;5.30;;;;;;;9.39;100.00;99103.34;6121008;28;20349;-72
2023/10/28 01:35:04;;;;;;;16.90;6.43;;;;;;;9.42;100.00;99110.94;6133014;28;20103;-72
2023/10/28 01:38:00;;;;;;;19.27;7.10;;;;;;;9.42;100.00;99115.38;6127263;28;20024;-73
2023/10/28 01:40:56;;;;;;;14.80;5.70;;;;;;;9.34;100.00;99108.34;6123830;28;20032;-72
2023/10/28 01:43:52;;;;;;;18.90;5.88;;;;;;;9.34;100.00;99103.06;6121786;28;20087;-73
2023/10/28 01:46:47;;;;;;;16.83;7.00;;;;;;;9.24;100.00;99091.88;6125739;28;20131;-72
2023/10/28 01:49:42;;;;;;;16.63;6.97;;;;;;;9.29;100.00;99105.41;6128394;28;20039;-73
2023/10/28 01:52:39;;;;;;;19.02;6.35;;;;;;;9.29;100.00;99107.22;6126959;28;20427;-73
2023/10/28 01:55:34;;;;;;;19.73;6.93;;;;;;;9.24;100.00;99113.03;6121177;28;20103;-73
2023/10/28 01:58:32;;;;;;;19.60;6.78;;;;;;;9.34;100.00;99113.63;6121548;28;20495;-73
2023/10/28 02:01:28;;;;;;;18.95;6.68;;;;;;;9.18;100.00;99103.19;6125484;28;20032;-73
2023/10/28 02:04:23;;;;;;;16.65;6.03;;;;;;;9.19;100.00;99115.38;6121048;28;20111;-72
2023/10/28 02:07:18;;;;;;;16.83;6.17;;;;;;;9.14;100.00;99107.16;6124739;28;20081;-73
2023/10/28 02:10:14;;;;;;;24.07;7.93;;;;;;;9.26;100.00;99111.06;6120975;28;20020;-72
2023/10/28 02:13:09;;;;;;;23.10;7.90;;;;;;;9.23;100.00;99105.28;6120703;28;20032;-72
2023/10/28 02:16:05;;;;;;;21.65;7.43;;;;;;;9.17;100.00;99120.03;6120747;28;20111;-73
2023/10/28 02:19:01;;;;;;;17.65;7.45;;;;;;;9.21;100.00;99107.28;6128102;28;20059;-73
2023/10/28 02:21:58;;;;;;;19.02;6.93;;;;;;;9.18;100.00;99112.94;6124689;28;20044;-72
2023/10/28 02:24:54;;;;;;;17.25;7.32;;;;;;;9.19;100.00;99123.31;6121847;28;20530;-72
2023/10/28 02:27:49;;;;;;;23.23;7.37;;;;;;;9.12;100.00;99109.16;6121012;28;20036;-72
2023/10/28 02:30:44;;;;;;;23.08;8.07;;;;;;;9.11;100.00;99102.22;6124150;28;20087;-72
2023/10/28 02:33:40;;;;;;;20.77;7.03;;;;;;;9.11;100.00;99109.34;6129383;28;20028;-73
2023/10/28 02:36:35;;;;;;;24.00;8.17;;;;;;;9.13;100.00;99113.44;6129038;28;20198;-72
2023/10/28 02:39:30;;;;;;;18.83;7.33;;;;;;;9.06;100.00;99094.00;6125913;28;20326;-73
2023/10/28 02:42:26;;;;;;;18.67;6.50;;;;;;;9.13;100.00;99094.13;6125094;28;20038;-73
2023/10/28 02:45:21;;;;;;;22.23;7.30;;;;;;;9.06;100.00;99098.47;6125668;28;20039;-72
2023/10/28 02:48:16;;;;;;;16.30;6.27;;;;;;;9.13;100.00;99117.94;6129766;28;20040;-72
2023/10/28 02:51:11;;;;;;;22.47;7.37;;;;;;;9.19;100.00;99110.09;6126786;28;20032;-72
2023/10/28 02:54:07;;;;;;;18.10;7.23;;;;;;;9.26;100.00;99121.63;6125652;28;20028;-72
2023/10/28 02:57:03;;;;;;;17.80;6.43;;;;;;;9.29;100.00;99123.09;6126738;28;20475;-73
2023/10/28 02:59:58;;;;;;;18.35;6.55;;;;;;;9.16;100.00;99107.81;6129711;28;20033;-73
2023/10/28 03:02:55;;;;;;;16.63;8.27;;;;;;;9.15;100.00;99103.53;6119326;28;20035;-73
2023/10/28 03:05:50;;;;;;;19.48;7.18;;;;;;;9.15;100.00;99098.25;6124253;28;20366;-73
2023/10/28 03:08:46;;;;;;;15.38;6.50;;;;;;;9.27;100.00;99099.47;6121903;28;20036;-72
2023/10/28 03:11:41;;;;;;;18.97;7.63;;;;;;;9.26;100.00;99121.63;6123620;28;20036;-72
2023/10/28 03:14:36;;;;;;;17.73;7.00;;;;;;;9.20;100.00;99127.63;6121737;28;20086;-71
2023/10/28 03:17:33;;;;;;;17.97;7.47;;;;;;;9.12;100.00;99126.84;6129582;28;20044;-71
2023/10/28 03:20:28;;;;;;;17.23;7.35;;;;;;;9.16;100.00;99131.59;6124688;28;20047;-71
2023/10/28 03:23:24;;;;;;;19.80;7.93;;;;;;;9.07;100.00;99122.09;6121318;28;20495;-71
2023/10/28 03:26:19;;;;;;;18.67;7.53;;;;;;;9.16;100.00;99125.53;6121415;28;20633;-72
2023/10/28 03:29:14;;;;;;;21.80;8.40;;;;;;;9.22;100.00;99120.34;6121114;28;20043;-71
2023/10/28 03:32:10;;;;;;;19.40;7.73;;;;;;;9.19;100.00;99118.03;6122651;28;20024;-71
2023/10/28 03:35:05;;;;;;;20.33;9.15;;;;;;;9.01;100.00;99112.22;6125624;28;20036;-72
2023/10/28 03:38:01;;;;;;;21.40;8.30;;;;;;;8.93;100.00;99123.69;6121001;28;20637;-71
2023/10/28 03:40:57;;;;;;;18.88;8.05;;;;;;;8.79;100.00;99113.84;6105466;28;20028;-71
2023/10/28 03:43:52;;;;;;;21.03;8.00;;;;;;;8.73;100.00;99114.53;6128950;28;20044;-72
2023/10/28 03:46:47;;;;;;;23.43;9.13;;;;;;;8.82;100.00;99129.34;6126229;28;20106;-71
2023/10/28 03:49:43;;;;;;;21.00;9.13;;;;;;;8.85;100.00;99122.91;6120801;28;20476;-72
2023/10/28 03:52:38;;;;;;;22.50;8.57;;;;;;;8.86;100.00;99127.16;6120901;28;20029;-72
2023/10/28 03:55:33;;;;;;;24.07;9.23;;;;;;;8.93;100.00;99126.31;6121375;28;20029;-72
2023/10/28 03:58:28;;;;;;;23.90;8.83;;;;;;;8.96;100.00;99130.44;6120758;28;20059;-71
2023/10/28 04:01:24;;;;;;;26.17;10.10;;;;;;;9.01;100.00;99127.25;6126229;28;20037;-72
2023/10/28 04:04:19;;;;;;;20.77;9.30;;;;;;;9.07;100.00;99132.69;6120388;28;20094;-72
2023/10/28 04:07:14;;;;;;;21.67;8.23;;;;;;;8.91;100.00;99117.72;6121830;28;20043;-72
2023/10/28 04:10:10;;;;;;;21.30;8.97;;;;;;;8.87;100.00;99132.28;6120456;28;20255;-72
2023/10/28 04:13:05;;;;;;;21.70;8.10;;;;;;;8.74;100.00;99131.22;6125147;28;20052;-71
2023/10/28 04:16:00;;;;;;;16.85;7.35;;;;;;;8.75;100.00;99143.44;6123524;28;20036;-72
2023/10/28 04:18:56;;;;;;;19.27;7.30;;;;;;;8.82;100.00;99152.31;6117142;28;20056;-71
2023/10/28 04:21:51;;;;;;;20.10;8.17;;;;;;;8.69;100.00;99129.09;6119750;28;20036;-71
2023/10/28 04:24:46;;;;;;;18.03;7.77;;;;;;;8.69;100.00;99141.47;6119828;28;20116;-72
2023/10/28 04:27:42;;;;;;;21.83;8.23;;;;;;;8.72;100.00;99149.91;6121343;28;20312;-72
2023/10/28 04:30:38;;;;;;;15.67;6.53;;;;;;;8.74;100.00;99141.78;6121317;28;20603;-72
2023/10/28 04:33:33;;;;;;;21.55;8.25;;;;;;;8.72;100.00;99143.78;6119506;28;20286;-72
2023/10/28 04:36:29;;;;;;;21.50;8.57;;;;;;;8.84;100.00;99155.59;6119960;28;20032;-71
2023/10/28 04:39:24;;;;;;;19.63;7.60;;;;;;;8.71;100.00;99131.56;6125603;28;20036;-72
2023/10/28 04:42:19;;;;;;;24.23;9.37;;;;;;;8.71;100.00;99142.97;6119971;28;20538;-71
2023/10/28 04:45:15;;;;;;;28.37;8.67;;;;;;;8.77;100.00;99146.72;6114682;28;20082;-72
2023/10/28 04:48:11;;;;;;;24.03;7.83;;;;;;;8.76;100.00;99137.16;6119340;28;20666;-72
2023/10/28 04:51:06;;;;;;;21.27;8.02;;;;;;;8.82;100.00;99141.75;6101955;28;20366;-71
2023/10/28 04:54:03;;;;;;;16.97;7.47;;;;;;;8.83;100.00;99135.47;6118670;28;20028;-71
2023/10/28 04:56:59;;;;;;;21.20;7.20;;;;;;;8.87;100.00;99142.03;6121135;28;20468;-71
2023/10/28 04:59:54;;;;;;;16.45;7.30;;;;;;;8.91;100.00;99140.72;6121509;28;20025;-72
2023/10/28 05:02:50;;;;;;;16.83;6.33;;;;;;;8.98;100.00;99144.28;6122619;28;20063;-72
2023/10/28 05:05:46;;;;;;;14.13;6.47;;;;;;;8.83;100.00;99135.47;6119637;28;20095;-71
2023/10/28 05:08:41;;;;;;;18.30;6.85;;;;;;;8.84;100.00;99143.22;6119583;28;20039;-72
2023/10/28 05:11:36;;;;;;;16.60;6.17;;;;;;;8.88;100.00;99156.91;6118646;28;20045;-72
2023/10/28 05:14:32;;;;;;;16.13;6.17;;;;;;;8.84;100.00;99160.88;6122564;28;20076;-71
2023/10/28 05:17:27;;;;;;;12.27;5.37;;;;;;;8.76;100.00;99156.47;6122292;28;20472;-71
2023/10/28 05:20:22;;;;;;;14.33;4.80;;;;;;;8.65;100.00;99142.81;6116440;28;20067;-72
2023/10/28 05:23:19;;;;;;;11.23;4.97;;;;;;;8.73;100.00;99158.63;6100249;28;20115;-71
2023/10/28 05:26:14;;;;;;;12.15;5.00;;;;;;;8.72;100.00;99159.66;6124389;28;20048;-71
2023/10/28 05:29:10;;;;;;;11.75;5.10;;;;;;;8.67;100.00;99154.06;6119027;28;20502;-72
2023/10/28 05:32:05;;;;;;;13.17;4.77;;;;;;;8.75;100.00;99167.22;6117800;28;20491;-72
2023/10/28 05:35:02;;;;;;;15.27;5.13;;;;;;;8.71;100.00;99166.75;6118715;28;20024;-72
2023/10/28 05:37:58;;;;;;;12.68;4.90;;;;;;;8.74;100.00;99169.03;6117978;28;20033;-72
2023/10/28 05:40:54;;;;;;;14.00;5.25;;;;;;;8.80;100.00;99178.94;6120479;28;20032;-71
2023/10/28 05:43:50;;;;;;;14.68;4.97;;;;;;;8.79;100.00;99173.81;6119114;28;20487;-72
2023/10/28 05:46:46;;;;;;;16.52;5.20;;;;;;;8.78;100.00;99174.78;6121591;28;20106;-72
2023/10/28 05:49:42;;;;;;;10.48;4.13;;;;;;;8.79;100.00;99176.44;6121027;28;20040;-72
2023/10/28 05:52:40;;;;;;;11.18;4.38;;;;;;;8.79;100.00;99177.28;6122178;28;20514;-71
2023/10/28 05:55:36;;;;;;;11.18;4.20;;;;;;;8.78;100.00;99177.44;6120978;28;20050;-72
2023/10/28 05:58:31;;;;;;;11.03;3.97;;;;;;;8.81;100.00;99193.78;6118551;28;20041;-71
2023/10/28 06:01:27;;;;;;;9.38;3.55;;;;;;;8.74;100.00;99179.63;6121174;28;20032;-72
2023/10/28 06:04:22;;;;;;;11.93;4.68;;;;;;;8.77;100.00;99189.00;6119032;28;20063;-72
2023/10/28 06:07:17;;;;;;;9.03;3.63;;;;;;;8.81;100.00;99195.59;6124633;28;20071;-72
2023/10/28 06:10:13;;;;;;;11.37;4.20;;;;;;;8.72;100.00;99178.97;6090866;28;20099;-72
2023/10/28 06:13:09;;;;;;;10.15;4.38;;;;;;;8.79;100.00;99189.66;6121553;28;20321;-72
2023/10/28 06:16:04;;;;;;;10.40;4.50;;;;;;;8.85;100.00;99196.91;6128951;28;20107;-72
2023/10/28 06:19:00;;;;;;;14.43;4.32;;;;;;;8.84;100.00;99197.88;6129282;28;20434;-72
2023/10/28 06:21:55;;;;;;;12.82;4.10;;;;;;;8.82;100.00;99199.88;6118623;28;20032;-72
2023/10/28 06:24:51;;;;;;;7.87;3.73;;;;;;;8.91;100.00;99207.59;6120301;28;20138;-72
2023/10/28 06:27:46;;;;;;;11.23;4.47;;;;;;;8.92;100.00;99214.53;6121450;28;20055;-72
2023/10/28 06:30:49;;;;;;;10.48;5.05;;;;;;;8.89;100.00;99220.16;6123212;28;20060;-72
2023/10/28 06:33:44;;;;;;;12.43;3.92;;;;;;;8.85;100.00;99212.75;6125958;28;20098;-72
2023/10/28 06:36:40;;;;;;;11.50;4.37;;;;;;;8.88;100.00;99212.44;6128046;28;20032;-71
2023/10/28 06:39:35;;;;;;;9.10;3.95;;;;;;;8.97;100.00;99232.53;6128647;28;20032;-72
2023/10/28 06:42:30;;;;;;;9.43;4.23;;;;;;;9.02;100.00;99232.84;6129297;28;20450;-71
2023/10/28 06:45:26;;;;;;;10.80;4.87;;;;;;;9.01;100.00;99233.00;6120993;28;20468;-72
2023/10/28 06:48:21;;;;;;;11.13;3.70;;;;;;;8.96;100.00;99230.91;6120331;28;20066;-70
2023/10/28 06:51:16;;;;;;;14.53;4.13;;;;;;;8.99;100.00;99230.56;6124758;28;20354;-70
2023/10/28 06:54:12;;;;;;;8.40;3.17;;;;;;;8.93;100.00;99224.13;6102330;28;20028;-71
2023/10/28 06:57:07;;;;;;;7.88;3.10;;;;;;;9.11;100.00;99239.72;6094471;28;20028;-72
2023/10/28 07:00:04;;;;;;;5.37;2.03;;;;;;;9.08;100.00;99229.50;6124267;28;20032;-72
2023/10/28 07:02:59;;;;;;;11.48;2.95;;;;;;;9.13;100.00;99248.31;6128620;28;20087;-72
2023/10/28 07:05:56;;;;;;;6.93;2.60;;;;;;;9.17;100.00;99254.91;6119729;28;20541;-72
2023/10/28 07:08:52;;;;;;;4.30;2.28;;;;;;;9.04;100.00;99222.91;6119755;28;20024;-72
2023/10/28 07:11:47;;;;;;;9.07;3.15;;;;;;;9.20;100.00;99265.16;6127109;28;20376;-72
2023/10/28 07:14:42;;;;;;;5.70;2.13;;;;;;;9.23;100.00;99264.81;6127518;28;20025;-72
2023/10/28 07:17:39;;;;;;;10.90;2.35;;;;;;;9.21;100.00;99261.53;6126096;28;20038;-72
2023/10/28 07:20:34;;;;;;;8.05;2.60;;;;;;;9.23;100.00;99254.22;6127044;28;20028;-71
2023/10/28 07:23:30;;;;;;;7.90;2.70;;;;;;;9.21;100.00;99250.94;6129742;28;20040;-71
2023/10/28 07:26:27;;;;;;;7.85;3.20;;;;;;;9.24;100.00;99260.34;6132699;28;20054;-71
2023/10/28 07:29:22;;;;;;;11.05;3.20;;;;;;;9.35;100.00;99281.91;6124868;28;20032;-72
2023/10/28 07:32:18;;;;;;;7.60;3.20;;;;;;;9.38;100.00;99273.63;6131705;28;20464;-71
2023/10/28 07:35:16;;;;;;;6.30;2.50;;;;;;;9.43;100.00;99287.16;6124727;28;20016;-71
2023/10/28 07:38:12;;;;;;;7.25;2.88;;;;;;;9.47;100.00;99277.91;6125805;28;20032;-71
2023/10/28 07:41:08;;;;;;;6.38;3.28;;;;;;;9.45;100.00;99285.19;6127281;28;20070;-71
2023/10/28 07:44:03;;;;;;;6.83;2.87;;;;;;;9.46;100.00;99289.47;6125965;28;20025;-70
2023/10/28 07:46:59;;;;;;;6.97;2.78;;;;;;;9.49;100.00;99289.13;6111758;28;20290;-71
2023/10/28 07:49:54;;;;;;;9.02;2.85;;;;;;;9.42;100.00;99298.78;6123700;28;20088;-71
2023/10/28 07:52:50;;;;;;;6.20;3.03;;;;;;;9.42;100.00;99301.41;6124472;28;20028;-71
2023/10/28 07:55:45;;;;;;;7.40;3.20;;;;;;;9.50;100.00;99316.41;6122981;28;20066;-71
2023/10/28 07:58:40;;;;;;;7.13;3.23;;;;;;;9.50;100.00;99309.31;6130329;28;20033;-71
2023/10/28 08:01:35;;;;;;;7.93;3.03;;;;;;;9.34;100.00;99280.28;6134725;28;20041;-72
2023/10/28 08:04:31;;;;;;;7.47;2.77;;;;;;;9.56;100.00;99316.56;6131436;28;20032;-71
2023/10/28 08:07:26;;;;;;;7.03;2.80;;;;;;;9.57;100.00;99315.53;6105050;28;20036;-73
2023/10/28 08:10:24;;;;;;;9.50;2.90;;;;;;;9.67;100.00;99325.09;6133036;28;20076;-72
2023/10/28 08:13:20;;;;;;;8.93;3.70;;;;;;;9.61;100.00;99305.44;6114187;28;20640;-72
2023/10/28 08:16:20;;;;;;;4.97;2.97;;;;;;;9.65;100.00;99319.16;6128705;28;20032;-72
2023/10/28 08:19:16;;;;;;;10.75;3.28;;;;;;;9.67;100.00;99325.09;6122434;28;20025;-72
2023/10/28 08:22:12;;;;;;;11.40;3.60;;;;;;;9.61;100.00;99321.31;6125986;28;20086;-72
2023/10/28 08:25:08;;;;;;;8.52;3.60;;;;;;;9.61;100.00;99331.91;6122356;28;20036;-72
2023/10/28 08:28:03;;;;;;;6.93;3.42;;;;;;;9.59;100.00;99329.41;6121884;28;20099;-71
2023/10/28 08:30:59;;;;;;;8.82;3.00;;;;;;;9.59;100.00;99334.72;6126321;28;20059;-72
2023/10/28 08:33:54;;;;;;;8.03;2.90;;;;;;;9.64;100.00;99346.63;6132717;28;20033;-72
2023/10/28 08:36:50;;;;;;;6.50;3.00;;;;;;;9.65;100.00;99353.56;6129932;28;20282;-72
2023/10/28 08:39:45;;;;;;;9.75;3.45;;;;;;;9.54;100.00;99341.53;6130492;28;20060;-71
2023/10/28 08:42:41;;;;;;;10.73;3.60;;;;;;;9.62;100.00;99354.72;6127339;28;20414;-72
2023/10/28 08:45:37;;;;;;;7.00;3.47;;;;;;;9.66;100.00;99356.03;6108684;28;20032;-72
2023/10/28 08:48:33;;;;;;;9.23;3.05;;;;;;;9.71;100.00;99344.91;6124034;28;20040;-72
2023/10/28 08:51:28;;;;;;;8.57;3.92;;;;;;;9.79;100.00;99355.44;6127470;28;20590;-71
2023/10/28 08:54:26;;;;;;;10.60;3.20;;;;;;;9.84;100.00;99347.81;6110727;28;20028;-71
2023/10/28 08:57:23;;;;;;;7.72;2.70;;;;;;;10.02;100.00;99351.03;6121534;28;20415;-71
2023/10/28 09:00:23;;;;;;;5.90;2.33;;;;;;;10.19;100.00;99365.00;6122007;28;20071;-72
2023/10/28 09:03:22;;;;;;;7.07;2.72;;;;;;;10.16;100.00;99366.19;6121760;28;20170;-73
2023/10/28 09:06:19;;;;;;;5.38;2.70;;;;;;;10.23;100.00;99366.28;6122163;28;20090;-71
2023/10/28 09:09:17;;;;;;;6.18;2.83;;;;;;;10.21;100.00;99365.66;6131314;28;20024;-71
2023/10/28 09:12:12;;;;;;;7.57;2.55;;;;;;;10.27;100.00;99371.06;6126220;28;20087;-72
2023/10/28 09:15:08;;;;;;;6.30;2.33;;;;;;;10.29;100.00;99382.31;6121568;28;20041;-73
2023/10/28 09:18:04;;;;;;;6.00;2.33;;;;;;;10.30;100.00;99385.78;6121068;28;20146;-72
2023/10/28 09:20:59;;;;;;;7.43;2.67;;;;;;;10.32;100.00;99374.00;6121498;28;20028;-71
2023/10/28 09:24:00;;;;;;;6.30;3.00;;;;;;;10.39;100.00;99382.88;6126505;28;20287;-72
2023/10/28 09:26:55;;;;;;;6.68;2.45;;;;;;;10.41;100.00;99386.19;6121832;28;20028;-72
2023/10/28 09:29:51;;;;;;;4.35;2.30;;;;;;;10.36;100.00;99396.50;6126591;28;20021;-71
2023/10/28 09:32:46;;;;;;;6.47;3.05;;;;;;;10.30;100.00;99383.94;6121464;28;20036;-71
2023/10/28 09:35:44;;;;;;;5.37;2.60;;;;;;;10.30;100.00;99391.88;6126877;28;20032;-72
2023/10/28 09:38:41;;;;;;;4.75;2.60;;;;;;;10.41;100.00;99386.19;6130683;28;20044;-72
2023/10/28 09:41:38;;;;;;;4.80;2.65;;;;;;;10.68;100.00;99398.88;6103291;28;20063;-72
2023/10/28 09:44:34;;;;;;;4.03;2.47;;;;;;;10.47;100.00;99382.81;6106961;28;20040;-71
2023/10/28 09:47:49;;;;;;;6.22;2.50;;;;;;;10.69;100.00;99403.19;6131558;28;20036;-71
2023/10/28 09:50:48;;;;;;;6.88;2.72;;;;;;;10.74;100.00;99414.06;6105721;28;20047;-72
2023/10/28 09:53:48;;;;;;;8.95;2.60;;;;;;;10.69;100.00;99411.13;6129840;28;20154;-73
2023/10/28 09:56:44;;;;;;;6.85;2.75;;;;;;;10.77;100.00;99403.13;6122811;28;20483;-72
2023/10/28 09:59:44;;;;;;;6.40;2.22;;;;;;;10.91;100.00;99405.97;6129541;28;20034;-71
2023/10/28 10:02:58;;;;;;;4.32;1.85;;;;;;;10.97;100.00;99399.94;6108663;28;20036;-72
2023/10/28 10:05:53;;;;;;;6.43;2.05;;;;;;;10.96;100.00;99382.38;6121018;28;20090;-72
2023/10/28 10:08:50;;;;;;;3.20;2.10;;;;;;;11.06;100.00;99382.97;6104334;28;20438;-73
2023/10/28 10:11:49;;;;;;;4.65;1.95;;;;;;;11.40;100.00;99396.50;6120347;28;20082;-72
2023/10/28 10:14:45;;;;;;;8.27;2.13;;;;;;;11.46;100.00;99401.09;6121978;28;20036;-72
2023/10/28 10:17:48;;;;;;;7.75;2.15;;;;;;;11.62;100.00;99384.13;6127659;28;20093;-72
2023/10/28 10:20:44;;;;;;;3.67;1.70;;;;;;;11.59;100.00;99387.97;6120909;28;20037;-72
2023/10/28 10:23:52;;;;;;;4.43;1.95;;;;;;;11.66;100.00;99386.22;6122334;28;20040;-73
2023/10/28 10:26:55;;;;;;;3.35;1.83;;;;;;;11.84;100.00;99383.19;6129054;28;20036;-73
2023/10/28 10:29:51;;;;;;;3.03;1.55;;;;;;;11.76;100.00;99373.53;6123865;28;20051;-73
2023/10/28 10:32:48;;;;;;;5.82;1.80;;;;;;;11.72;100.00;99388.16;6112808;28;20036;-72
2023/10/28 10:35:48;;;;;;;3.63;1.67;;;;;;;11.72;100.00;99376.72;6120347;28;20132;-73
2023/10/28 10:38:45;;;;;;;2.70;1.38;;;;;;;12.03;100.00;99387.91;6115450;28;20032;-72
2023/10/28 10:41:53;;;;;;;5.35;1.58;;;;;;;12.12;100.00;99373.47;6128673;28;20038;-72
2023/10/28 10:44:49;;;;;;;4.30;1.80;;;;;;;12.43;100.00;99368.69;6133709;28;20047;-73
2023/10/28 10:47:46;;;;;;;4.17;2.20;;;;;;;12.82;100.00;99368.22;6125146;28;20043;-73
2023/10/28 10:50:41;;;;;;;3.83;1.85;;;;;;;12.95;100.00;99368.28;6119992;28;20302;-73
2023/10/28 10:53:41;;;;;;;3.03;1.73;;;;;;;12.51;100.00;99376.53;6123846;28;20032;-72
2023/10/28 10:56:37;;;;;;;2.70;1.50;;;;;;;12.68;100.00;99370.94;6125006;28;20044;-75
2023/10/28 10:59:33;;;;;;;3.87;1.57;;;;;;;12.78;100.00;99366.94;6125249;28;20033;-71
2023/10/28 11:02:29;;;;;;;4.70;1.73;;;;;;;12.61;100.00;99370.88;6110895;28;20119;-72
2023/10/28 11:05:28;;;;;;;2.50;1.00;;;;;;;12.76;100.00;99374.28;6124252;28;20020;-72
2023/10/28 11:08:24;;;;;;;2.08;1.17;;;;;;;12.95;100.00;99351.50;6127769;28;20312;-72
2023/10/28 11:11:19;;;;;;;2.45;0.80;;;;;;;12.80;100.00;99358.78;6122201;28;20024;-75
2023/10/28 11:14:15;;;;;;;1.63;0.80;;;;;;;12.97;100.00;99368.09;6125920;28;20044;-73
2023/10/28 11:17:10;;;;;;;3.85;1.00;;;;;;;13.16;100.00;99359.44;6131347;28;20270;-74
2023/10/28 11:20:09;;;;;;;2.53;1.10;;;;;;;12.67;100.00;99343.50;6106742;28;20116;-72
2023/10/28 11:23:05;;;;;;;2.50;0.90;;;;;;;12.73;100.00;99363.19;6130266;28;20359;-74
2023/10/28 11:26:02;;;;;;;1.65;0.90;;;;;;;12.49;100.00;99357.31;6106312;28;20062;-73
2023/10/28 11:28:59;;;;;;;2.00;0.90;;;;;;;12.56;100.00;99362.66;6109648;28;20021;-74
2023/10/28 11:31:55;;;;;;;3.17;0.93;;;;;;;12.51;100.00;99359.75;6125479;28;20115;-73
2023/10/28 11:34:53;;;;;;;1.83;1.00;;;;;;;12.49;100.00;99354.63;6124039;28;20364;-71
2023/10/28 11:37:48;;;;;;;1.83;0.88;;;;;;;12.42;100.00;99342.28;6127865;28;20372;-73
2023/10/28 11:40:43;;;;;;;3.63;1.03;;;;;;;12.52;100.00;99356.91;6130198;28;20078;-72
2023/10/28 11:43:39;;;;;;;2.28;1.50;;;;;;;12.54;100.00;99351.41;6133132;28;20028;-76
2023/10/28 11:46:34;;;;;;;4.22;1.30;;;;;;;12.47;100.00;99338.03;6105619;28;20070;-73
2023/10/28 11:49:29;;;;;;;2.20;1.10;;;;;;;12.67;100.00;99348.84;6133772;28;20040;-74
2023/10/28 11:52:25;;;;;;;2.53;1.10;;;;;;;12.72;100.00;99357.06;6124035;28;20101;-72
2023/10/28 11:55:20;;;;;;;2.43;1.20;;;;;;;12.79;100.00;99357.94;6125071;28;20028;-72
2023/10/28 11:58:16;;;;;;;1.90;0.73;;;;;;;12.85;100.00;99351.03;6136024;28;20278;-74
2023/10/28 12:01:11;;;;;;;0.75;0.65;;;;;;;12.79;100.00;99352.63;6108135;28;20021;-74
2023/10/28 12:04:09;;;;;;;1.87;0.70;;;;;;;13.02;100.00;99369.16;6124708;28;20349;-72
2023/10/28 12:07:05;;;;;;;0.93;0.50;;;;;;;12.92;100.00;99358.03;6123307;28;20775;-73
2023/10/28 12:10:06;;;;;;;2.83;0.90;;;;;;;12.97;100.00;99370.75;6127842;28;20020;-75
2023/10/28 12:13:01;;;;;;;1.25;0.73;;;;;;;12.53;100.00;99357.72;6129079;28;20091;-75
2023/10/28 12:15:57;;;;;;;2.47;0.93;;;;;;;12.43;100.00;99355.41;6123560;28;20032;-72
2023/10/28 12:18:52;;;;;;;1.45;0.80;;;;;;;12.55;100.00;99379.66;6123163;28;20235;-72
2023/10/28 12:21:47;;;;;;;2.03;0.63;;;;;;;12.38;100.00;99359.63;6122868;28;20032;-74
2023/10/28 12:24:43;;;;;;;1.90;0.80;;;;;;;12.34;100.00;99369.81;6122993;28;20063;-74
2023/10/28 12:27:38;;;;;;;5.33;1.57;;;;;;;12.15;100.00;99370.44;6123533;28;20301;-74
2023/10/28 12:30:34;;;;;;;3.47;1.20;;;;;;;12.10;100.00;99372.03;6124987;28;20148;-75
2023/10/28 12:33:30;;;;;;;1.15;0.47;;;;;;;12.00;100.00;99360.88;6127771;28;20055;-75
2023/10/28 12:36:25;;;;;;;2.10;0.70;;;;;;;12.00;100.00;99374.19;6123399;28;20053;-74
2023/10/28 12:39:21;;;;;;;1.50;0.70;;;;;;;11.95;100.00;99358.81;6122366;28;20063;-75
2023/10/28 12:42:16;;;;;;;1.70;0.50;;;;;;;12.10;100.00;99374.69;6122552;28;20517;-73
2023/10/28 12:45:11;;;;;;;2.53;0.60;;;;;;;12.09;100.00;99373.88;6120976;28;20290;-72
2023/10/28 12:48:07;;;;;;;1.57;0.33;;;;;;;11.81;100.00;99357.00;6126791;28;20067;-73
2023/10/28 12:51:03;;;;;;;1.42;0.40;;;;;;;11.84;100.00;99384.03;6126749;28;20324;-72
2023/10/28 12:53:59;;;;;;;1.10;0.47;;;;;;;11.79;100.00;99381.13;6119089;28;20082;-72
2023/10/28 12:56:55;;;;;;;0.70;0.50;;;;;;;11.67;100.00;99377.25;6123847;28;20038;-71
2023/10/28 12:59:50;;;;;;;1.70;0.40;;;;;;;11.46;100.00;99361.25;6120954;28;20044;-74
2023/10/28 13:02:45;;;;;;;1.63;0.57;;;;;;;11.45;100.00;99370.22;6126341;28;20032;-73
2023/10/28 13:05:41;;;;;;;1.90;0.70;;;;;;;11.47;100.00;99375.38;6122706;28;20464;-73
2023/10/28 13:08:37;;;;;;;3.47;0.50;;;;;;;11.49;100.00;99366.22;6126954;28;20024;-71
2023/10/28 13:11:32;;;;;;;2.30;0.73;;;;;;;11.52;100.00;99362.34;6103126;28;20028;-72
2023/10/28 13:14:27;;;;;;;1.10;0.63;;;;;;;11.57;100.00;99366.09;6126805;28;20324;-71
2023/10/28 13:17:23;;;;;;;1.35;0.80;;;;;;;11.50;100.00;99348.41;6120749;28;20028;-72
2023/10/28 13:20:18;;;;;;;5.40;1.00;;;;;;;11.55;100.00;99362.78;6121068;28;20025;-72
2023/10/28 13:23:14;;;;;;;1.90;1.00;;;;;;;11.54;100.00;99355.84;6126623;28;20037;-72
2023/10/28 13:26:12;;;;;;;3.63;1.17;;;;;;;11.49;100.00;99342.31;6122881;28;20274;-71
2023/10/28 13:29:08;;;;;;;2.22;1.13;;;;;;;11.73;100.00;99357.94;6123866;28;20143;-74
2023/10/28 13:32:06;;;;;;;2.72;1.17;;;;;;;11.69;100.00;99338.06;6119949;28;20059;-75
2023/10/28 13:35:02;;;;;;;1.48;0.90;;;;;;;11.77;100.00;99334.47;6123746;28;20043;-74
2023/10/28 13:37:58;;;;;;;1.63;0.98;;;;;;;11.83;100.00;99336.38;6083934;28;1071349;-73
2023/10/28 13:40:53;;;;;;;1.92;1.10;;;;;;;11.74;100.00;99324.25;6125438;28;20119;-74